sensor_id;sensor_type;location;lat;lon;timestamp;P1;durP1;ratioP1;P2;durP2;ratioP2
6598;SDS011;3335;43.198;27.918;2023-03-01T00:01:27;9.37;;;6.27;;
6598;SDS011;3335;43.198;27.918;2023-03-01T00:03:56;10.27;;;5.23;;
6598;SDS011;3335;43.198;27.918;2023-03-01T00:06:25;10.97;;;6.03;;
6598;SDS011;3335;43.198;27.918;2023-03-01T00:08:53;8.13;;;5.80;;
6598;SDS011;3335;43.198;27.918;2023-03-01T00:11:21;8.60;;;5.07;;
6598;SDS011;3335;43.198;27.918;2023-03-01T00:13:50;7.93;;;5.33;;
6598;SDS011;3335;43.198;27.918;2023-03-01T00:16:19;7.40;;;5.80;;
6598;SDS011;3335;43.198;27.918;2023-03-01T00:18:47;9.10;;;5.90;;
6598;SDS011;3335;43.198;27.918;2023-03-01T00:21:15;10.23;;;5.67;;
6598;SDS011;3335;43.198;27.918;2023-03-01T00:23:44;11.27;;;7.50;;
6598;SDS011;3335;43.198;27.918;2023-03-01T00:26:12;9.43;;;6.30;;
6598;SDS011;3335;43.198;27.918;2023-03-01T00:28:40;7.97;;;5.80;;
6598;SDS011;3335;43.198;27.918;2023-03-01T00:31:08;9.60;;;6.50;;
6598;SDS011;3335;43.198;27.918;2023-03-01T00:33:36;9.83;;;6.03;;
6598;SDS011;3335;43.198;27.918;2023-03-01T00:36:03;10.23;;;6.50;;
6598;SDS011;3335;43.198;27.918;2023-03-01T00:38:34;10.50;;;5.80;;
6598;SDS011;3335;43.198;27.918;2023-03-01T00:41:07;9.63;;;5.97;;
6598;SDS011;3335;43.198;27.918;2023-03-01T00:43:35;11.80;;;5.50;;
6598;SDS011;3335;43.198;27.918;2023-03-01T00:46:02;8.80;;;5.53;;
6598;SDS011;3335;43.198;27.918;2023-03-01T00:48:31;10.37;;;5.83;;
6598;SDS011;3335;43.198;27.918;2023-03-01T00:51:03;12.43;;;5.90;;
6598;SDS011;3335;43.198;27.918;2023-03-01T00:53:31;8.00;;;6.00;;
6598;SDS011;3335;43.198;27.918;2023-03-01T00:55:58;6.97;;;5.03;;
6598;SDS011;3335;43.198;27.918;2023-03-01T00:58:26;5.83;;;4.40;;
6598;SDS011;3335;43.198;27.918;2023-03-01T01:00:53;7.50;;;4.87;;
6598;SDS011;3335;43.198;27.918;2023-03-01T01:03:21;9.90;;;5.10;;
6598;SDS011;3335;43.198;27.918;2023-03-01T01:05:50;7.67;;;4.93;;
6598;SDS011;3335;43.198;27.918;2023-03-01T01:08:17;7.70;;;4.70;;
6598;SDS011;3335;43.198;27.918;2023-03-01T01:10:44;6.70;;;4.67;;
6598;SDS011;3335;43.198;27.918;2023-03-01T01:13:12;6.67;;;4.70;;
6598;SDS011;3335;43.198;27.918;2023-03-01T01:15:41;10.93;;;4.83;;
6598;SDS011;3335;43.198;27.918;2023-03-01T01:18:08;5.43;;;4.40;;
6598;SDS011;3335;43.198;27.918;2023-03-01T01:20:35;8.50;;;5.87;;
6598;SDS011;3335;43.198;27.918;2023-03-01T01:23:04;8.10;;;5.40;;
6598;SDS011;3335;43.198;27.918;2023-03-01T01:25:33;6.73;;;4.73;;
6598;SDS011;3335;43.198;27.918;2023-03-01T01:28:01;11.63;;;5.43;;
6598;SDS011;3335;43.198;27.918;2023-03-01T01:30:28;10.97;;;5.90;;
6598;SDS011;3335;43.198;27.918;2023-03-01T01:32:57;10.30;;;5.67;;
6598;SDS011;3335;43.198;27.918;2023-03-01T01:35:23;10.03;;;6.57;;
6598;SDS011;3335;43.198;27.918;2023-03-01T01:37:50;9.13;;;5.77;;
6598;SDS011;3335;43.198;27.918;2023-03-01T01:40:17;10.53;;;6.43;;
6598;SDS011;3335;43.198;27.918;2023-03-01T01:42:44;8.93;;;6.20;;
6598;SDS011;3335;43.198;27.918;2023-03-01T01:45:25;13.53;;;6.90;;
6598;SDS011;3335;43.198;27.918;2023-03-01T01:47:57;12.80;;;6.87;;
6598;SDS011;3335;43.198;27.918;2023-03-01T01:50:27;11.13;;;7.00;;
6598;SDS011;3335;43.198;27.918;2023-03-01T01:53:04;14.40;;;7.30;;
6598;SDS011;3335;43.198;27.918;2023-03-01T01:55:34;12.13;;;7.47;;
6598;SDS011;3335;43.198;27.918;2023-03-01T01:58:04;10.43;;;7.13;;
6598;SDS011;3335;43.198;27.918;2023-03-01T02:00:34;14.67;;;7.10;;
6598;SDS011;3335;43.198;27.918;2023-03-01T02:03:07;13.40;;;7.97;;
6598;SDS011;3335;43.198;27.918;2023-03-01T02:05:38;15.47;;;7.70;;
6598;SDS011;3335;43.198;27.918;2023-03-01T02:08:11;14.00;;;8.30;;
6598;SDS011;3335;43.198;27.918;2023-03-01T02:10:40;15.30;;;8.27;;
6598;SDS011;3335;43.198;27.918;2023-03-01T02:13:08;15.03;;;7.90;;
6598;SDS011;3335;43.198;27.918;2023-03-01T02:15:36;13.60;;;8.30;;
6598;SDS011;3335;43.198;27.918;2023-03-01T02:18:06;15.27;;;8.63;;
6598;SDS011;3335;43.198;27.918;2023-03-01T02:20:37;16.90;;;9.00;;
6598;SDS011;3335;43.198;27.918;2023-03-01T02:23:10;12.97;;;8.40;;
6598;SDS011;3335;43.198;27.918;2023-03-01T02:25:41;15.47;;;9.07;;
6598;SDS011;3335;43.198;27.918;2023-03-01T02:28:22;13.83;;;9.23;;
6598;SDS011;3335;43.198;27.918;2023-03-01T02:30:51;18.87;;;9.13;;
6598;SDS011;3335;43.198;27.918;2023-03-01T02:33:37;16.03;;;9.47;;
6598;SDS011;3335;43.198;27.918;2023-03-01T02:36:06;16.20;;;9.37;;
6598;SDS011;3335;43.198;27.918;2023-03-01T02:38:36;17.40;;;8.83;;
6598;SDS011;3335;43.198;27.918;2023-03-01T02:41:03;16.37;;;9.77;;
6598;SDS011;3335;43.198;27.918;2023-03-01T02:43:34;16.80;;;9.90;;
6598;SDS011;3335;43.198;27.918;2023-03-01T02:46:03;21.50;;;10.77;;
6598;SDS011;3335;43.198;27.918;2023-03-01T02:48:39;17.00;;;10.10;;
6598;SDS011;3335;43.198;27.918;2023-03-01T02:51:10;21.93;;;10.03;;
6598;SDS011;3335;43.198;27.918;2023-03-01T02:53:48;16.97;;;10.47;;
6598;SDS011;3335;43.198;27.918;2023-03-01T02:56:27;20.80;;;10.57;;
6598;SDS011;3335;43.198;27.918;2023-03-01T02:58:57;18.07;;;10.17;;
6598;SDS011;3335;43.198;27.918;2023-03-01T03:01:26;21.67;;;10.93;;
6598;SDS011;3335;43.198;27.918;2023-03-01T03:04:02;19.53;;;10.40;;
6598;SDS011;3335;43.198;27.918;2023-03-01T03:06:30;19.10;;;11.03;;
6598;SDS011;3335;43.198;27.918;2023-03-01T03:08:57;21.20;;;11.20;;
6598;SDS011;3335;43.198;27.918;2023-03-01T03:11:24;22.90;;;10.20;;
6598;SDS011;3335;43.198;27.918;2023-03-01T03:13:51;18.97;;;10.60;;
6598;SDS011;3335;43.198;27.918;2023-03-01T03:16:19;20.97;;;10.97;;
6598;SDS011;3335;43.198;27.918;2023-03-01T03:18:47;23.90;;;11.33;;
6598;SDS011;3335;43.198;27.918;2023-03-01T03:21:14;24.80;;;11.53;;
6598;SDS011;3335;43.198;27.918;2023-03-01T03:23:41;21.30;;;11.30;;
6598;SDS011;3335;43.198;27.918;2023-03-01T03:26:08;24.47;;;11.37;;
6598;SDS011;3335;43.198;27.918;2023-03-01T03:28:40;23.47;;;10.90;;
6598;SDS011;3335;43.198;27.918;2023-03-01T03:31:07;21.40;;;10.03;;
6598;SDS011;3335;43.198;27.918;2023-03-01T03:33:36;22.93;;;11.90;;
6598;SDS011;3335;43.198;27.918;2023-03-01T03:36:03;20.20;;;11.60;;
6598;SDS011;3335;43.198;27.918;2023-03-01T03:38:31;23.30;;;10.87;;
6598;SDS011;3335;43.198;27.918;2023-03-01T03:41:01;17.90;;;11.00;;
6598;SDS011;3335;43.198;27.918;2023-03-01T03:43:30;18.87;;;11.27;;
6598;SDS011;3335;43.198;27.918;2023-03-01T03:45:59;22.57;;;12.07;;
6598;SDS011;3335;43.198;27.918;2023-03-01T03:48:26;21.63;;;11.87;;
6598;SDS011;3335;43.198;27.918;2023-03-01T03:50:55;22.47;;;12.43;;
6598;SDS011;3335;43.198;27.918;2023-03-01T03:53:23;20.33;;;12.67;;
6598;SDS011;3335;43.198;27.918;2023-03-01T03:55:52;20.97;;;12.63;;
6598;SDS011;3335;43.198;27.918;2023-03-01T03:58:20;25.70;;;13.57;;
6598;SDS011;3335;43.198;27.918;2023-03-01T04:00:48;22.90;;;12.63;;
6598;SDS011;3335;43.198;27.918;2023-03-01T04:03:18;24.67;;;12.37;;
6598;SDS011;3335;43.198;27.918;2023-03-01T04:05:46;23.73;;;11.77;;
6598;SDS011;3335;43.198;27.918;2023-03-01T04:08:17;26.73;;;13.03;;
6598;SDS011;3335;43.198;27.918;2023-03-01T04:10:46;25.73;;;12.53;;
6598;SDS011;3335;43.198;27.918;2023-03-01T04:13:18;25.27;;;12.67;;
6598;SDS011;3335;43.198;27.918;2023-03-01T04:15:46;23.73;;;13.40;;
6598;SDS011;3335;43.198;27.918;2023-03-01T04:18:16;23.00;;;12.17;;
6598;SDS011;3335;43.198;27.918;2023-03-01T04:20:44;25.80;;;13.53;;
6598;SDS011;3335;43.198;27.918;2023-03-01T04:23:12;29.23;;;12.97;;
6598;SDS011;3335;43.198;27.918;2023-03-01T04:25:47;26.13;;;12.73;;
6598;SDS011;3335;43.198;27.918;2023-03-01T04:28:18;21.20;;;12.47;;
6598;SDS011;3335;43.198;27.918;2023-03-01T04:30:45;29.70;;;13.43;;
6598;SDS011;3335;43.198;27.918;2023-03-01T04:33:12;24.47;;;12.63;;
6598;SDS011;3335;43.198;27.918;2023-03-01T04:35:39;25.00;;;12.50;;
6598;SDS011;3335;43.198;27.918;2023-03-01T04:38:06;26.13;;;13.20;;
6598;SDS011;3335;43.198;27.918;2023-03-01T04:40:33;22.27;;;13.03;;
6598;SDS011;3335;43.198;27.918;2023-03-01T04:43:02;25.37;;;11.60;;
6598;SDS011;3335;43.198;27.918;2023-03-01T04:45:31;23.90;;;12.03;;
6598;SDS011;3335;43.198;27.918;2023-03-01T04:47:59;29.33;;;12.23;;
6598;SDS011;3335;43.198;27.918;2023-03-01T04:50:26;25.23;;;12.90;;
6598;SDS011;3335;43.198;27.918;2023-03-01T04:52:53;26.20;;;13.23;;
6598;SDS011;3335;43.198;27.918;2023-03-01T04:55:23;24.10;;;12.10;;
6598;SDS011;3335;43.198;27.918;2023-03-01T04:57:51;26.47;;;13.13;;
6598;SDS011;3335;43.198;27.918;2023-03-01T05:00:19;19.43;;;12.13;;
6598;SDS011;3335;43.198;27.918;2023-03-01T05:02:48;24.33;;;13.10;;
6598;SDS011;3335;43.198;27.918;2023-03-01T05:05:19;25.20;;;13.43;;
6598;SDS011;3335;43.198;27.918;2023-03-01T05:07:50;22.93;;;11.80;;
6598;SDS011;3335;43.198;27.918;2023-03-01T05:10:21;25.27;;;12.43;;
6598;SDS011;3335;43.198;27.918;2023-03-01T05:12:49;26.67;;;12.07;;
6598;SDS011;3335;43.198;27.918;2023-03-01T05:15:17;20.30;;;11.30;;
6598;SDS011;3335;43.198;27.918;2023-03-01T05:17:48;24.03;;;12.30;;
6598;SDS011;3335;43.198;27.918;2023-03-01T05:20:15;21.90;;;12.40;;
6598;SDS011;3335;43.198;27.918;2023-03-01T05:22:42;21.07;;;11.03;;
6598;SDS011;3335;43.198;27.918;2023-03-01T05:25:09;17.83;;;10.23;;
6598;SDS011;3335;43.198;27.918;2023-03-01T05:27:39;21.40;;;12.20;;
6598;SDS011;3335;43.198;27.918;2023-03-01T05:30:06;21.03;;;11.53;;
6598;SDS011;3335;43.198;27.918;2023-03-01T05:32:42;19.80;;;11.17;;
6598;SDS011;3335;43.198;27.918;2023-03-01T05:35:13;23.27;;;12.20;;
6598;SDS011;3335;43.198;27.918;2023-03-01T05:37:41;28.13;;;12.30;;
6598;SDS011;3335;43.198;27.918;2023-03-01T05:40:09;21.13;;;11.63;;
6598;SDS011;3335;43.198;27.918;2023-03-01T05:42:41;20.87;;;12.17;;
6598;SDS011;3335;43.198;27.918;2023-03-01T05:45:09;21.27;;;11.63;;
6598;SDS011;3335;43.198;27.918;2023-03-01T05:47:38;22.37;;;11.73;;
6598;SDS011;3335;43.198;27.918;2023-03-01T05:50:09;21.53;;;12.30;;
6598;SDS011;3335;43.198;27.918;2023-03-01T05:52:39;23.50;;;12.43;;
6598;SDS011;3335;43.198;27.918;2023-03-01T05:55:07;21.73;;;11.17;;
6598;SDS011;3335;43.198;27.918;2023-03-01T05:57:34;26.33;;;12.23;;
6598;SDS011;3335;43.198;27.918;2023-03-01T06:00:01;21.17;;;12.33;;
6598;SDS011;3335;43.198;27.918;2023-03-01T06:02:28;21.83;;;11.87;;
6598;SDS011;3335;43.198;27.918;2023-03-01T06:04:55;19.50;;;12.00;;
6598;SDS011;3335;43.198;27.918;2023-03-01T06:07:24;21.90;;;11.93;;
6598;SDS011;3335;43.198;27.918;2023-03-01T06:09:51;23.77;;;12.67;;
6598;SDS011;3335;43.198;27.918;2023-03-01T06:12:18;18.33;;;11.00;;
6598;SDS011;3335;43.198;27.918;2023-03-01T06:14:45;20.87;;;11.27;;
6598;SDS011;3335;43.198;27.918;2023-03-01T06:17:13;24.40;;;12.20;;
6598;SDS011;3335;43.198;27.918;2023-03-01T06:19:40;17.27;;;12.07;;
6598;SDS011;3335;43.198;27.918;2023-03-01T06:22:07;23.37;;;11.80;;
6598;SDS011;3335;43.198;27.918;2023-03-01T06:24:35;20.67;;;10.57;;
6598;SDS011;3335;43.198;27.918;2023-03-01T06:27:02;27.23;;;11.53;;
6598;SDS011;3335;43.198;27.918;2023-03-01T06:29:29;20.73;;;11.03;;
6598;SDS011;3335;43.198;27.918;2023-03-01T06:31:56;22.47;;;11.50;;
6598;SDS011;3335;43.198;27.918;2023-03-01T06:34:23;21.70;;;10.87;;
6598;SDS011;3335;43.198;27.918;2023-03-01T06:36:50;23.13;;;11.90;;
6598;SDS011;3335;43.198;27.918;2023-03-01T06:39:17;26.10;;;11.67;;
6598;SDS011;3335;43.198;27.918;2023-03-01T06:41:45;18.87;;;11.00;;
6598;SDS011;3335;43.198;27.918;2023-03-01T06:44:12;19.77;;;10.63;;
6598;SDS011;3335;43.198;27.918;2023-03-01T06:46:40;20.83;;;11.00;;
6598;SDS011;3335;43.198;27.918;2023-03-01T06:49:07;21.03;;;11.27;;
6598;SDS011;3335;43.198;27.918;2023-03-01T06:51:34;21.47;;;11.27;;
6598;SDS011;3335;43.198;27.918;2023-03-01T06:54:02;18.10;;;10.87;;
6598;SDS011;3335;43.198;27.918;2023-03-01T06:56:30;21.67;;;11.83;;
6598;SDS011;3335;43.198;27.918;2023-03-01T06:58:59;23.93;;;11.80;;
6598;SDS011;3335;43.198;27.918;2023-03-01T07:01:26;19.10;;;11.60;;
6598;SDS011;3335;43.198;27.918;2023-03-01T07:03:53;23.30;;;12.77;;
6598;SDS011;3335;43.198;27.918;2023-03-01T07:06:19;24.17;;;13.50;;
6598;SDS011;3335;43.198;27.918;2023-03-01T07:08:46;22.07;;;13.10;;
6598;SDS011;3335;43.198;27.918;2023-03-01T07:11:14;27.60;;;12.17;;
6598;SDS011;3335;43.198;27.918;2023-03-01T07:13:41;25.63;;;12.83;;
6598;SDS011;3335;43.198;27.918;2023-03-01T07:16:09;24.23;;;13.20;;
6598;SDS011;3335;43.198;27.918;2023-03-01T07:18:36;19.63;;;11.43;;
6598;SDS011;3335;43.198;27.918;2023-03-01T07:21:04;21.90;;;12.80;;
6598;SDS011;3335;43.198;27.918;2023-03-01T07:23:31;22.50;;;12.87;;
6598;SDS011;3335;43.198;27.918;2023-03-01T07:25:58;25.80;;;13.80;;
6598;SDS011;3335;43.198;27.918;2023-03-01T07:28:26;22.30;;;12.50;;
6598;SDS011;3335;43.198;27.918;2023-03-01T07:30:53;19.17;;;12.10;;
6598;SDS011;3335;43.198;27.918;2023-03-01T07:33:22;21.90;;;12.40;;
6598;SDS011;3335;43.198;27.918;2023-03-01T07:35:55;23.93;;;13.50;;
6598;SDS011;3335;43.198;27.918;2023-03-01T07:38:23;23.30;;;13.00;;
6598;SDS011;3335;43.198;27.918;2023-03-01T07:40:50;21.43;;;12.60;;
6598;SDS011;3335;43.198;27.918;2023-03-01T07:43:17;21.10;;;11.87;;
6598;SDS011;3335;43.198;27.918;2023-03-01T07:45:44;25.57;;;12.17;;
6598;SDS011;3335;43.198;27.918;2023-03-01T07:48:11;22.43;;;13.57;;
6598;SDS011;3335;43.198;27.918;2023-03-01T07:50:39;26.50;;;12.10;;
6598;SDS011;3335;43.198;27.918;2023-03-01T07:53:06;26.67;;;12.50;;
6598;SDS011;3335;43.198;27.918;2023-03-01T07:55:33;27.13;;;13.57;;
6598;SDS011;3335;43.198;27.918;2023-03-01T07:58:00;25.87;;;13.37;;
6598;SDS011;3335;43.198;27.918;2023-03-01T08:00:27;24.77;;;13.63;;
6598;SDS011;3335;43.198;27.918;2023-03-01T08:02:54;28.43;;;13.00;;
6598;SDS011;3335;43.198;27.918;2023-03-01T08:05:21;27.43;;;14.13;;
6598;SDS011;3335;43.198;27.918;2023-03-01T08:07:49;21.30;;;12.17;;
6598;SDS011;3335;43.198;27.918;2023-03-01T08:10:16;21.73;;;12.57;;
6598;SDS011;3335;43.198;27.918;2023-03-01T08:12:43;26.80;;;13.67;;
6598;SDS011;3335;43.198;27.918;2023-03-01T08:15:12;20.53;;;12.97;;
6598;SDS011;3335;43.198;27.918;2023-03-01T08:17:39;23.03;;;12.10;;
6598;SDS011;3335;43.198;27.918;2023-03-01T08:20:06;26.00;;;13.43;;
6598;SDS011;3335;43.198;27.918;2023-03-01T08:22:37;20.93;;;11.80;;
6598;SDS011;3335;43.198;27.918;2023-03-01T08:25:06;22.77;;;12.43;;
6598;SDS011;3335;43.198;27.918;2023-03-01T08:27:33;22.17;;;12.03;;
6598;SDS011;3335;43.198;27.918;2023-03-01T08:30:00;23.50;;;13.27;;
6598;SDS011;3335;43.198;27.918;2023-03-01T08:32:27;23.37;;;12.10;;
6598;SDS011;3335;43.198;27.918;2023-03-01T08:34:54;27.87;;;12.13;;
6598;SDS011;3335;43.198;27.918;2023-03-01T08:37:21;23.80;;;11.90;;
6598;SDS011;3335;43.198;27.918;2023-03-01T08:39:48;22.60;;;12.00;;
6598;SDS011;3335;43.198;27.918;2023-03-01T08:42:16;22.53;;;11.43;;
6598;SDS011;3335;43.198;27.918;2023-03-01T08:44:43;24.13;;;12.03;;
6598;SDS011;3335;43.198;27.918;2023-03-01T08:47:10;31.80;;;13.67;;
6598;SDS011;3335;43.198;27.918;2023-03-01T08:49:37;21.30;;;12.47;;
6598;SDS011;3335;43.198;27.918;2023-03-01T08:52:03;30.87;;;13.57;;
6598;SDS011;3335;43.198;27.918;2023-03-01T08:54:30;21.37;;;12.40;;
6598;SDS011;3335;43.198;27.918;2023-03-01T08:56:57;30.97;;;12.73;;
6598;SDS011;3335;43.198;27.918;2023-03-01T08:59:26;22.30;;;12.50;;
6598;SDS011;3335;43.198;27.918;2023-03-01T09:01:55;22.50;;;12.30;;
6598;SDS011;3335;43.198;27.918;2023-03-01T09:04:22;25.10;;;14.10;;
6598;SDS011;3335;43.198;27.918;2023-03-01T09:06:49;20.93;;;13.13;;
6598;SDS011;3335;43.198;27.918;2023-03-01T09:09:16;23.03;;;12.23;;
6598;SDS011;3335;43.198;27.918;2023-03-01T09:11:44;23.37;;;12.07;;
6598;SDS011;3335;43.198;27.918;2023-03-01T09:14:11;23.23;;;13.07;;
6598;SDS011;3335;43.198;27.918;2023-03-01T09:16:40;23.63;;;13.97;;
6598;SDS011;3335;43.198;27.918;2023-03-01T09:19:07;26.70;;;13.50;;
6598;SDS011;3335;43.198;27.918;2023-03-01T09:21:34;27.27;;;14.43;;
6598;SDS011;3335;43.198;27.918;2023-03-01T09:24:01;26.50;;;14.03;;
6598;SDS011;3335;43.198;27.918;2023-03-01T09:26:28;27.00;;;14.30;;
6598;SDS011;3335;43.198;27.918;2023-03-01T09:28:55;28.87;;;14.67;;
6598;SDS011;3335;43.198;27.918;2023-03-01T09:31:23;29.87;;;15.87;;
6598;SDS011;3335;43.198;27.918;2023-03-01T09:33:52;28.20;;;15.77;;
6598;SDS011;3335;43.198;27.918;2023-03-01T09:36:21;28.63;;;14.63;;
6598;SDS011;3335;43.198;27.918;2023-03-01T09:38:49;24.33;;;14.27;;
6598;SDS011;3335;43.198;27.918;2023-03-01T09:41:32;32.03;;;16.10;;
6598;SDS011;3335;43.198;27.918;2023-03-01T09:44:10;26.97;;;15.27;;
6598;SDS011;3335;43.198;27.918;2023-03-01T09:46:45;30.30;;;15.37;;
6598;SDS011;3335;43.198;27.918;2023-03-01T09:49:14;27.73;;;16.17;;
6598;SDS011;3335;43.198;27.918;2023-03-01T09:51:44;32.17;;;17.47;;
6598;SDS011;3335;43.198;27.918;2023-03-01T09:54:20;31.40;;;17.37;;
6598;SDS011;3335;43.198;27.918;2023-03-01T09:56:51;24.40;;;12.77;;
6598;SDS011;3335;43.198;27.918;2023-03-01T09:59:26;25.47;;;13.23;;
6598;SDS011;3335;43.198;27.918;2023-03-01T10:02:00;25.53;;;13.10;;
6598;SDS011;3335;43.198;27.918;2023-03-01T10:04:51;25.37;;;13.00;;
6598;SDS011;3335;43.198;27.918;2023-03-01T10:07:23;20.63;;;11.90;;
6598;SDS011;3335;43.198;27.918;2023-03-01T10:09:59;25.37;;;13.03;;
6598;SDS011;3335;43.198;27.918;2023-03-01T10:12:31;26.53;;;12.33;;
6598;SDS011;3335;43.198;27.918;2023-03-01T10:15:04;25.27;;;12.10;;
6598;SDS011;3335;43.198;27.918;2023-03-01T10:17:37;28.07;;;12.90;;
6598;SDS011;3335;43.198;27.918;2023-03-01T10:20:16;26.57;;;12.23;;
6598;SDS011;3335;43.198;27.918;2023-03-01T10:22:47;24.13;;;11.17;;
6598;SDS011;3335;43.198;27.918;2023-03-01T10:25:20;20.50;;;11.07;;
6598;SDS011;3335;43.198;27.918;2023-03-01T10:27:59;20.83;;;11.60;;
6598;SDS011;3335;43.198;27.918;2023-03-01T10:30:34;21.13;;;11.43;;
6598;SDS011;3335;43.198;27.918;2023-03-01T10:33:04;25.23;;;10.53;;
6598;SDS011;3335;43.198;27.918;2023-03-01T10:35:41;16.67;;;9.60;;
6598;SDS011;3335;43.198;27.918;2023-03-01T10:38:09;15.10;;;9.07;;
6598;SDS011;3335;43.198;27.918;2023-03-01T10:40:50;21.20;;;9.87;;
6598;SDS011;3335;43.198;27.918;2023-03-01T10:43:18;19.30;;;9.90;;
6598;SDS011;3335;43.198;27.918;2023-03-01T10:45:46;17.43;;;9.47;;
6598;SDS011;3335;43.198;27.918;2023-03-01T10:48:13;17.13;;;9.40;;
6598;SDS011;3335;43.198;27.918;2023-03-01T10:50:44;26.50;;;10.70;;
6598;SDS011;3335;43.198;27.918;2023-03-01T10:53:25;17.20;;;9.97;;
6598;SDS011;3335;43.198;27.918;2023-03-01T10:55:58;16.13;;;10.20;;
6598;SDS011;3335;43.198;27.918;2023-03-01T10:58:27;26.53;;;11.87;;
6598;SDS011;3335;43.198;27.918;2023-03-01T11:00:55;18.57;;;10.90;;
6598;SDS011;3335;43.198;27.918;2023-03-01T11:03:23;20.83;;;10.00;;
6598;SDS011;3335;43.198;27.918;2023-03-01T11:05:54;16.50;;;9.57;;
6598;SDS011;3335;43.198;27.918;2023-03-01T11:08:38;23.70;;;10.23;;
6598;SDS011;3335;43.198;27.918;2023-03-01T11:13:57;19.73;;;10.83;;
6598;SDS011;3335;43.198;27.918;2023-03-01T11:16:31;19.47;;;9.83;;
6598;SDS011;3335;43.198;27.918;2023-03-01T11:19:19;22.37;;;10.73;;
6598;SDS011;3335;43.198;27.918;2023-03-01T11:21:52;19.30;;;10.87;;
6598;SDS011;3335;43.198;27.918;2023-03-01T11:24:25;20.57;;;10.60;;
6598;SDS011;3335;43.198;27.918;2023-03-01T11:26:56;17.70;;;10.30;;
6598;SDS011;3335;43.198;27.918;2023-03-01T11:29:30;21.77;;;10.57;;
6598;SDS011;3335;43.198;27.918;2023-03-01T11:32:03;19.83;;;10.90;;
6598;SDS011;3335;43.198;27.918;2023-03-01T11:34:38;25.07;;;10.73;;
6598;SDS011;3335;43.198;27.918;2023-03-01T11:37:14;16.43;;;9.77;;
6598;SDS011;3335;43.198;27.918;2023-03-01T11:39:52;19.17;;;10.37;;
6598;SDS011;3335;43.198;27.918;2023-03-01T11:42:25;15.50;;;9.70;;
6598;SDS011;3335;43.198;27.918;2023-03-01T11:44:59;14.60;;;9.57;;
6598;SDS011;3335;43.198;27.918;2023-03-01T11:47:38;16.83;;;9.00;;
6598;SDS011;3335;43.198;27.918;2023-03-01T11:50:25;19.17;;;9.60;;
6598;SDS011;3335;43.198;27.918;2023-03-01T11:53:00;16.37;;;9.53;;
6598;SDS011;3335;43.198;27.918;2023-03-01T11:55:40;13.97;;;9.10;;
6598;SDS011;3335;43.198;27.918;2023-03-01T11:58:24;16.83;;;9.53;;
6598;SDS011;3335;43.198;27.918;2023-03-01T12:01:06;15.77;;;9.13;;
6598;SDS011;3335;43.198;27.918;2023-03-01T12:03:44;13.07;;;9.23;;
6598;SDS011;3335;43.198;27.918;2023-03-01T12:09:19;13.53;;;8.83;;
6598;SDS011;3335;43.198;27.918;2023-03-01T12:17:50;15.90;;;9.17;;
6598;SDS011;3335;43.198;27.918;2023-03-01T12:20:32;15.10;;;9.50;;
6598;SDS011;3335;43.198;27.918;2023-03-01T12:23:16;19.40;;;9.43;;
6598;SDS011;3335;43.198;27.918;2023-03-01T12:25:57;15.70;;;8.87;;
6598;SDS011;3335;43.198;27.918;2023-03-01T12:28:36;14.10;;;9.83;;
6598;SDS011;3335;43.198;27.918;2023-03-01T12:34:07;16.77;;;9.93;;
6598;SDS011;3335;43.198;27.918;2023-03-01T12:36:50;14.93;;;9.10;;
6598;SDS011;3335;43.198;27.918;2023-03-01T12:39:32;17.07;;;9.40;;
6598;SDS011;3335;43.198;27.918;2023-03-01T12:42:14;13.23;;;8.97;;
6598;SDS011;3335;43.198;27.918;2023-03-01T12:44:54;14.53;;;9.23;;
6598;SDS011;3335;43.198;27.918;2023-03-01T12:47:37;13.03;;;8.83;;
6598;SDS011;3335;43.198;27.918;2023-03-01T12:50:18;12.70;;;8.17;;
6598;SDS011;3335;43.198;27.918;2023-03-01T12:52:48;10.60;;;7.90;;
6598;SDS011;3335;43.198;27.918;2023-03-01T12:55:24;14.93;;;7.80;;
6598;SDS011;3335;43.198;27.918;2023-03-01T12:57:59;12.30;;;7.67;;
6598;SDS011;3335;43.198;27.918;2023-03-01T13:00:31;12.53;;;8.43;;
6598;SDS011;3335;43.198;27.918;2023-03-01T13:03:05;15.90;;;8.50;;
6598;SDS011;3335;43.198;27.918;2023-03-01T13:05:42;12.43;;;7.07;;
6598;SDS011;3335;43.198;27.918;2023-03-01T13:08:24;14.00;;;7.40;;
6598;SDS011;3335;43.198;27.918;2023-03-01T13:10:56;15.97;;;7.47;;
6598;SDS011;3335;43.198;27.918;2023-03-01T13:13:29;12.47;;;7.07;;
6598;SDS011;3335;43.198;27.918;2023-03-01T13:15:56;15.17;;;6.90;;
6598;SDS011;3335;43.198;27.918;2023-03-01T13:18:28;16.40;;;6.67;;
6598;SDS011;3335;43.198;27.918;2023-03-01T13:20:57;20.87;;;6.97;;
6598;SDS011;3335;43.198;27.918;2023-03-01T13:23:27;13.93;;;7.07;;
6598;SDS011;3335;43.198;27.918;2023-03-01T13:26:01;12.90;;;6.67;;
6598;SDS011;3335;43.198;27.918;2023-03-01T13:28:49;20.47;;;7.80;;
6598;SDS011;3335;43.198;27.918;2023-03-01T13:34:42;12.33;;;7.33;;
6598;SDS011;3335;43.198;27.918;2023-03-01T13:37:18;9.87;;;6.57;;
6598;SDS011;3335;43.198;27.918;2023-03-01T13:39:51;11.43;;;6.70;;
6598;SDS011;3335;43.198;27.918;2023-03-01T13:42:31;12.83;;;6.03;;
6598;SDS011;3335;43.198;27.918;2023-03-01T13:45:04;14.50;;;6.67;;
6598;SDS011;3335;43.198;27.918;2023-03-01T13:47:43;12.97;;;6.27;;
6598;SDS011;3335;43.198;27.918;2023-03-01T13:50:16;14.03;;;6.83;;
6598;SDS011;3335;43.198;27.918;2023-03-01T13:52:48;9.37;;;6.13;;
6598;SDS011;3335;43.198;27.918;2023-03-01T13:55:19;10.33;;;6.97;;
6598;SDS011;3335;43.198;27.918;2023-03-01T13:57:50;12.63;;;7.53;;
6598;SDS011;3335;43.198;27.918;2023-03-01T14:00:29;9.10;;;6.30;;
6598;SDS011;3335;43.198;27.918;2023-03-01T14:03:02;11.77;;;7.07;;
6598;SDS011;3335;43.198;27.918;2023-03-01T14:05:31;12.17;;;7.23;;
6598;SDS011;3335;43.198;27.918;2023-03-01T14:07:58;16.97;;;7.30;;
6598;SDS011;3335;43.198;27.918;2023-03-01T14:10:26;22.50;;;9.27;;
6598;SDS011;3335;43.198;27.918;2023-03-01T14:13:05;12.93;;;7.13;;
6598;SDS011;3335;43.198;27.918;2023-03-01T14:15:47;13.93;;;7.57;;
6598;SDS011;3335;43.198;27.918;2023-03-01T14:18:25;18.27;;;8.73;;
6598;SDS011;3335;43.198;27.918;2023-03-01T14:21:06;15.27;;;7.07;;
6598;SDS011;3335;43.198;27.918;2023-03-01T14:23:34;14.23;;;7.57;;
6598;SDS011;3335;43.198;27.918;2023-03-01T14:26:01;13.83;;;7.83;;
6598;SDS011;3335;43.198;27.918;2023-03-01T14:28:29;10.97;;;7.50;;
6598;SDS011;3335;43.198;27.918;2023-03-01T14:31:00;10.87;;;6.90;;
6598;SDS011;3335;43.198;27.918;2023-03-01T14:33:28;11.80;;;7.57;;
6598;SDS011;3335;43.198;27.918;2023-03-01T14:35:58;11.20;;;6.77;;
6598;SDS011;3335;43.198;27.918;2023-03-01T14:38:31;16.50;;;7.17;;
6598;SDS011;3335;43.198;27.918;2023-03-01T14:41:01;11.47;;;6.87;;
6598;SDS011;3335;43.198;27.918;2023-03-01T14:43:31;12.50;;;6.37;;
6598;SDS011;3335;43.198;27.918;2023-03-01T14:46:00;11.17;;;7.37;;
6598;SDS011;3335;43.198;27.918;2023-03-01T14:48:27;11.27;;;7.50;;
6598;SDS011;3335;43.198;27.918;2023-03-01T14:50:56;10.93;;;7.37;;
6598;SDS011;3335;43.198;27.918;2023-03-01T14:53:25;11.73;;;7.90;;
6598;SDS011;3335;43.198;27.918;2023-03-01T14:55:55;16.57;;;7.67;;
6598;SDS011;3335;43.198;27.918;2023-03-01T14:58:27;15.73;;;7.67;;
6598;SDS011;3335;43.198;27.918;2023-03-01T15:00:55;13.33;;;7.93;;
6598;SDS011;3335;43.198;27.918;2023-03-01T15:03:26;18.00;;;7.70;;
6598;SDS011;3335;43.198;27.918;2023-03-01T15:05:57;14.90;;;8.07;;
6598;SDS011;3335;43.198;27.918;2023-03-01T15:08:26;11.37;;;6.70;;
6598;SDS011;3335;43.198;27.918;2023-03-01T15:10:59;15.43;;;6.53;;
6598;SDS011;3335;43.198;27.918;2023-03-01T15:13:29;17.00;;;7.27;;
6598;SDS011;3335;43.198;27.918;2023-03-01T15:16:05;13.27;;;8.03;;
6598;SDS011;3335;43.198;27.918;2023-03-01T15:18:36;11.57;;;7.30;;